createdAt,value
2022-10-18T00:02:06.480Z,15.27
2022-10-18T00:04:33.656Z,15.20
2022-10-18T00:07:00.039Z,15.19
2022-10-18T00:09:26.748Z,15.17
2022-10-18T00:11:53.719Z,15.14
2022-10-18T00:14:20.174Z,15.11
2022-10-18T00:16:46.488Z,15.18
2022-10-18T00:19:12.860Z,15.13
2022-10-18T00:21:39.328Z,15.14
2022-10-18T00:24:06.080Z,15.19
2022-10-18T00:26:32.412Z,15.13
2022-10-18T00:29:05.028Z,15.07
2022-10-18T00:31:34.450Z,15.05
2022-10-18T00:34:06.278Z,15.00
2022-10-18T00:36:34.020Z,14.99
2022-10-18T00:39:01.845Z,15.02
2022-10-18T00:41:31.775Z,14.97
2022-10-18T00:44:07.295Z,14.96
2022-10-18T00:46:43.389Z,14.91
2022-10-18T00:49:16.996Z,14.96
2022-10-18T00:51:51.996Z,14.99
2022-10-18T00:54:20.621Z,15.10
2022-10-18T00:56:46.988Z,15.08
2022-10-18T00:59:16.306Z,15.12
2022-10-18T01:01:43.120Z,15.15
2022-10-18T01:04:10.148Z,15.05
2022-10-18T01:09:33.903Z,15.08
2022-10-18T01:12:09.358Z,15.18
2022-10-18T01:14:49.747Z,15.07
2022-10-18T01:17:18.704Z,15.05
2022-10-18T01:20:07.128Z,15.08
2022-10-18T01:22:48.658Z,15.07
2022-10-18T01:25:57.061Z,15.07
2022-10-18T01:28:50.117Z,15.08
2022-10-18T01:31:31.811Z,15.15
2022-10-18T01:36:42.590Z,15.11
2022-10-18T01:39:14.319Z,15.10
2022-10-18T01:41:43.219Z,15.24
2022-10-18T01:44:15.014Z,15.28
2022-10-18T01:46:42.799Z,15.24
2022-10-18T01:49:09.109Z,15.20
2022-10-18T01:51:35.547Z,15.28
2022-10-18T01:54:02.398Z,15.24
2022-10-18T01:56:41.065Z,15.16
2022-10-18T01:59:45.166Z,15.02
2022-10-18T02:02:33.266Z,15.02
2022-10-18T02:05:24.657Z,15.11
2022-10-18T02:08:22.733Z,15.07
2022-10-18T02:11:10.708Z,14.98
2022-10-18T02:13:42.573Z,15.03
2022-10-18T02:16:13.777Z,15.04
2022-10-18T02:18:44.283Z,15.04
2022-10-18T02:21:13.397Z,15.14
2022-10-18T02:23:39.729Z,15.04
2022-10-18T02:26:06.642Z,15.01
2022-10-18T02:28:33.031Z,15.07
2022-10-18T02:31:20.746Z,15.12
2022-10-18T02:33:47.020Z,15.07
2022-10-18T02:36:38.898Z,15.03
2022-10-18T02:39:11.559Z,15.02
2022-10-18T02:41:38.060Z,15.01
2022-10-18T02:44:04.551Z,14.98
2022-10-18T02:46:30.923Z,14.99
2022-10-18T02:48:57.247Z,15.02
2022-10-18T02:51:23.690Z,15.01
2022-10-18T02:53:50.002Z,15.01
2022-10-18T02:56:16.367Z,15.00
2022-10-18T02:58:42.707Z,14.99
2022-10-18T03:01:09.117Z,14.96
2022-10-18T03:03:35.466Z,14.99
2022-10-18T03:06:01.773Z,15.06
2022-10-18T03:08:28.165Z,15.08
2022-10-18T03:10:54.494Z,15.07
2022-10-18T03:13:21.047Z,15.08
2022-10-18T03:15:48.117Z,15.17
2022-10-18T03:18:15.028Z,15.01
2022-10-18T03:20:41.392Z,14.98
2022-10-18T03:23:07.715Z,15.02
2022-10-18T03:25:34.337Z,15.09
2022-10-18T03:28:00.878Z,14.98
2022-10-18T03:30:27.337Z,14.90
2022-10-18T03:32:53.634Z,14.85
2022-10-18T03:35:20.441Z,14.83
2022-10-18T03:37:46.838Z,14.79
2022-10-18T03:40:13.242Z,14.80
2022-10-18T03:42:39.569Z,14.82
2022-10-18T03:45:06.401Z,14.87
2022-10-18T03:47:32.750Z,14.88
2022-10-18T03:49:59.073Z,14.92
2022-10-18T03:52:25.449Z,15.00
2022-10-18T03:54:51.754Z,15.08
2022-10-18T03:57:18.086Z,15.01
2022-10-18T03:59:44.429Z,14.85
2022-10-18T04:02:10.802Z,14.85
2022-10-18T04:04:37.111Z,14.90
2022-10-18T04:07:03.431Z,14.91
2022-10-18T04:09:29.786Z,14.88
2022-10-18T04:11:56.109Z,14.89
2022-10-18T04:14:22.412Z,14.89
2022-10-18T04:16:48.753Z,14.91
2022-10-18T04:19:15.150Z,14.80
2022-10-18T04:21:41.486Z,14.76
2022-10-18T04:24:07.818Z,14.75
2022-10-18T04:26:34.155Z,14.78
2022-10-18T04:29:00.562Z,14.80
2022-10-18T04:31:27.058Z,14.73
2022-10-18T04:33:53.548Z,14.69
2022-10-18T04:36:19.884Z,14.66
2022-10-18T04:38:46.243Z,14.66
2022-10-18T04:41:12.568Z,14.53
2022-10-18T04:43:38.971Z,14.47
2022-10-18T04:46:05.411Z,14.48
2022-10-18T04:48:31.750Z,14.50
2022-10-18T04:50:58.090Z,14.52
2022-10-18T04:53:24.549Z,14.49
2022-10-18T04:55:51.469Z,14.55
2022-10-18T04:58:18.431Z,14.57
2022-10-18T05:00:45.227Z,14.64
2022-10-18T05:03:13.760Z,14.62
2022-10-18T05:06:00.300Z,14.57
2022-10-18T05:08:26.828Z,14.57
2022-10-18T05:10:53.226Z,14.59
2022-10-18T05:13:19.579Z,14.59
2022-10-18T05:15:46.615Z,14.57
2022-10-18T05:18:13.082Z,14.55
2022-10-18T05:20:39.438Z,14.49
2022-10-18T05:23:05.776Z,14.45
2022-10-18T05:25:32.155Z,14.46
2022-10-18T05:28:00.947Z,14.53
2022-10-18T05:30:29.614Z,14.58
2022-10-18T05:32:55.936Z,14.64
2022-10-18T05:35:22.299Z,14.67
2022-10-18T05:37:48.652Z,14.73
2022-10-18T05:40:15.019Z,14.75
2022-10-18T05:42:41.353Z,14.78
2022-10-18T05:45:08.393Z,14.76
2022-10-18T05:50:07.244Z,14.79
2022-10-18T05:52:33.988Z,14.81
2022-10-18T05:55:00.646Z,14.84
2022-10-18T05:57:26.990Z,14.85
2022-10-18T05:59:53.315Z,14.88
2022-10-18T06:02:19.835Z,14.89
2022-10-18T06:04:46.199Z,14.83
2022-10-18T06:07:12.619Z,14.79
2022-10-18T06:09:38.967Z,14.75
2022-10-18T06:12:05.555Z,14.66
2022-10-18T06:14:31.932Z,14.61
2022-10-18T06:16:58.256Z,14.62
2022-10-18T06:19:24.563Z,14.67
2022-10-18T06:21:50.887Z,14.70
2022-10-18T06:24:17.226Z,14.71
2022-10-18T06:26:43.687Z,14.72
2022-10-18T06:29:10.283Z,14.76
2022-10-18T06:31:36.634Z,14.82
2022-10-18T06:34:02.959Z,14.82
2022-10-18T06:36:29.274Z,14.83
2022-10-18T06:38:55.610Z,14.86
2022-10-18T06:41:22.395Z,14.86
2022-10-18T06:43:49.660Z,14.89
2022-10-18T06:46:16.443Z,14.94
2022-10-18T06:48:42.753Z,14.99
2022-10-18T06:51:09.913Z,14.98
2022-10-18T06:53:44.183Z,15.04
2022-10-18T06:56:19.743Z,15.07
2022-10-18T06:58:46.144Z,15.04
2022-10-18T07:01:15.116Z,15.00
2022-10-18T07:03:41.774Z,15.01
2022-10-18T07:06:10.755Z,15.11
2022-10-18T07:08:38.483Z,15.22
2022-10-18T07:11:06.417Z,15.26
2022-10-18T07:13:33.605Z,15.28
2022-10-18T07:16:05.267Z,15.38
2022-10-18T07:18:36.832Z,15.50
2022-10-18T07:21:05.355Z,15.56
2022-10-18T07:23:42.266Z,15.69
2022-10-18T07:26:34.181Z,15.73
2022-10-18T07:29:10.011Z,15.82
2022-10-18T07:31:37.315Z,16.02
2022-10-18T07:34:05.295Z,16.09
2022-10-18T07:36:31.920Z,16.12
2022-10-18T07:38:58.426Z,16.14
2022-10-18T07:41:25.060Z,16.16
2022-10-18T07:43:52.849Z,16.11
2022-10-18T07:46:20.945Z,16.02
2022-10-18T07:48:47.703Z,15.92
2022-10-18T07:51:14.577Z,15.72
2022-10-18T07:53:41.066Z,15.74
2022-10-18T07:56:13.451Z,15.71
2022-10-18T07:58:39.786Z,15.68
2022-10-18T08:01:07.847Z,15.67
2022-10-18T08:03:35.480Z,15.53
2022-10-18T08:06:03.132Z,15.52
2022-10-18T08:08:30.101Z,15.47
2022-10-18T08:11:02.123Z,15.43
2022-10-18T08:13:29.182Z,15.46
2022-10-18T08:16:06.791Z,15.29
2022-10-18T08:18:33.746Z,15.24
2022-10-18T08:21:01.422Z,15.46
2022-10-18T08:23:27.760Z,15.42
2022-10-18T08:25:54.363Z,15.37
2022-10-18T08:28:21.018Z,15.28
2022-10-18T08:30:47.349Z,15.31
2022-10-18T08:33:13.672Z,15.37
2022-10-18T08:35:40.024Z,15.48
2022-10-18T08:38:06.335Z,15.59
2022-10-18T08:40:33.901Z,15.71
2022-10-18T08:43:10.449Z,15.82
2022-10-18T08:45:42.657Z,15.94
2022-10-18T08:48:32.766Z,16.11
2022-10-18T08:51:00.136Z,16.20
2022-10-18T08:53:34.051Z,16.27
2022-10-18T08:56:11.761Z,16.29
2022-10-18T08:58:39.084Z,16.35
2022-10-18T09:01:46.439Z,16.44
2022-10-18T09:04:34.939Z,16.54
2022-10-18T09:07:03.964Z,16.63
2022-10-18T09:10:01.400Z,16.67
2022-10-18T09:12:49.114Z,16.74
2022-10-18T09:15:36.858Z,16.79
2022-10-18T09:18:13.245Z,16.98
2022-10-18T09:21:05.207Z,17.04
2022-10-18T09:23:39.697Z,16.90
2022-10-18T09:26:13.701Z,16.93
2022-10-18T09:29:05.695Z,16.82
2022-10-18T09:31:40.909Z,16.84
2022-10-18T09:34:29.967Z,16.88
2022-10-18T09:36:57.135Z,16.68
2022-10-18T09:39:31.111Z,16.83
2022-10-18T09:42:03.795Z,16.89
2022-10-18T09:44:48.765Z,16.61
2022-10-18T09:50:06.082Z,16.31
2022-10-18T09:52:44.403Z,16.10
2022-10-18T09:55:22.222Z,16.02
2022-10-18T09:57:54.510Z,16.13
2022-10-18T10:00:27.995Z,16.02
2022-10-18T10:02:54.796Z,15.98
2022-10-18T10:05:21.110Z,16.04
2022-10-18T10:07:49.446Z,16.02
2022-10-18T10:10:23.743Z,15.96
2022-10-18T10:13:02.726Z,16.07
2022-10-18T10:15:33.057Z,16.36
2022-10-18T10:18:24.842Z,16.65
2022-10-18T10:20:59.818Z,16.78
2022-10-18T10:23:30.307Z,16.81
2022-10-18T10:26:02.583Z,16.98
2022-10-18T10:28:32.768Z,16.89
2022-10-18T10:31:24.194Z,16.88
2022-10-18T10:34:14.114Z,17.23
2022-10-18T10:36:54.764Z,17.05
2022-10-18T10:39:23.704Z,17.02
2022-10-18T10:41:56.378Z,17.24
2022-10-18T10:44:25.720Z,17.27
2022-10-18T10:46:53.132Z,17.51
2022-10-18T10:52:36.863Z,17.89
2022-10-18T10:55:11.296Z,17.62
2022-10-18T10:57:51.487Z,17.52
2022-10-18T11:00:44.507Z,17.44
2022-10-18T11:03:28.060Z,17.12
2022-10-18T11:05:56.093Z,17.08
2022-10-18T11:08:26.467Z,16.93
2022-10-18T11:11:22.890Z,17.01
2022-10-18T11:14:07.296Z,16.66
2022-10-18T11:16:55.633Z,16.57
2022-10-18T11:19:37.111Z,16.76
2022-10-18T11:22:06.392Z,16.91
2022-10-18T11:24:35.233Z,17.39
2022-10-18T11:27:26.890Z,17.22
2022-10-18T11:29:59.280Z,17.19
2022-10-18T11:32:38.459Z,17.05
2022-10-18T11:35:38.692Z,17.22
2022-10-18T11:38:32.649Z,17.39
2022-10-18T11:41:10.382Z,17.54
2022-10-18T11:44:01.237Z,17.72
2022-10-18T11:46:43.423Z,17.69
2022-10-18T11:49:34.155Z,17.64
2022-10-18T11:52:24.700Z,17.62
2022-10-18T11:55:20.223Z,17.71
2022-10-18T11:57:50.111Z,17.65
2022-10-18T12:00:32.843Z,17.36
2022-10-18T12:03:13.934Z,17.15
2022-10-18T12:05:42.773Z,17.14
2022-10-18T12:08:14.706Z,17.33
2022-10-18T12:11:05.807Z,17.50
2022-10-18T12:13:32.616Z,17.71
2022-10-18T12:16:02.079Z,17.81
2022-10-18T12:18:31.634Z,17.99
2022-10-18T12:20:59.914Z,18.19
2022-10-18T12:23:29.303Z,18.25
2022-10-18T12:26:01.799Z,18.23
2022-10-18T12:28:51.251Z,18.25
2022-10-18T12:31:24.097Z,17.98
2022-10-18T12:33:56.237Z,17.98
2022-10-18T12:36:22.506Z,17.93
2022-10-18T12:38:57.151Z,17.94
2022-10-18T12:41:27.787Z,17.80
2022-10-18T12:44:06.743Z,17.95
2022-10-18T12:46:50.349Z,17.94
2022-10-18T12:49:40.206Z,17.97
2022-10-18T12:52:26.700Z,17.89
2022-10-18T12:55:16.707Z,17.97
2022-10-18T12:57:52.781Z,17.93
2022-10-18T13:00:31.271Z,18.07
2022-10-18T13:03:26.833Z,18.10
2022-10-18T13:05:59.317Z,17.97
2022-10-18T13:08:28.982Z,17.97
2022-10-18T13:11:01.474Z,17.77
2022-10-18T13:13:43.131Z,17.69
2022-10-18T13:16:23.992Z,17.72
2022-10-18T13:19:14.152Z,17.90
2022-10-18T13:21:53.578Z,17.84
2022-10-18T13:24:35.641Z,18.06
2022-10-18T13:27:34.894Z,18.15
2022-10-18T13:30:09.924Z,18.05
2022-10-18T13:32:59.055Z,18.01
2022-10-18T13:35:52.447Z,17.90
2022-10-18T13:38:54.060Z,17.76
2022-10-18T13:43:53.580Z,17.71
2022-10-18T13:46:21.114Z,17.54
2022-10-18T13:48:49.774Z,17.40
2022-10-18T13:51:32.338Z,17.43
2022-10-18T13:54:17.140Z,17.47
2022-10-18T13:56:54.448Z,17.58
2022-10-18T14:02:50.992Z,17.67
2022-10-18T14:05:36.575Z,17.77
2022-10-18T14:08:11.103Z,17.64
2022-10-18T14:11:02.399Z,17.50
2022-10-18T14:13:43.758Z,17.58
2022-10-18T14:16:47.638Z,17.41
2022-10-18T14:19:13.898Z,17.13
2022-10-18T14:21:47.654Z,17.30
2022-10-18T14:24:20.308Z,17.25
2022-10-18T14:26:46.930Z,17.26
2022-10-18T14:29:18.822Z,17.32
2022-10-18T14:31:53.949Z,17.15
2022-10-18T14:34:21.031Z,17.11
2022-10-18T14:36:49.324Z,17.16
2022-10-18T14:39:21.913Z,17.10
2022-10-18T14:41:54.044Z,16.99
2022-10-18T14:44:26.296Z,16.99
2022-10-18T14:46:59.716Z,17.12
2022-10-18T14:49:26.177Z,17.05
2022-10-18T14:51:55.654Z,16.90
2022-10-18T14:54:32.470Z,16.64
2022-10-18T14:57:00.577Z,16.88
2022-10-18T14:59:29.725Z,16.68
2022-10-18T15:01:55.982Z,16.77
2022-10-18T15:04:27.783Z,16.69
2022-10-18T15:06:55.453Z,16.78
2022-10-18T15:09:24.366Z,16.69
2022-10-18T15:11:51.396Z,16.64
2022-10-18T15:14:20.106Z,16.70
2022-10-18T15:16:48.703Z,16.68
2022-10-18T15:19:14.962Z,16.56
2022-10-18T15:22:33.887Z,16.44
2022-10-18T15:25:10.922Z,16.43
2022-10-18T15:27:39.330Z,16.39
2022-10-18T15:30:08.544Z,16.36
2022-10-18T15:32:35.097Z,16.26
2022-10-18T15:35:15.738Z,16.17
2022-10-18T15:37:44.837Z,16.18
2022-10-18T15:40:23.063Z,16.12
2022-10-18T15:42:50.746Z,16.02
2022-10-18T15:45:26.279Z,15.88
2022-10-18T15:48:07.824Z,15.70
2022-10-18T15:50:41.777Z,15.71
2022-10-18T15:53:20.412Z,15.38
2022-10-18T15:56:05.475Z,15.08
2022-10-18T15:58:45.503Z,15.26
2022-10-18T16:01:14.727Z,15.20
2022-10-18T16:03:41.459Z,15.29
2022-10-18T16:06:12.355Z,15.35
2022-10-18T16:08:43.787Z,15.22
2022-10-18T16:11:19.141Z,15.14
2022-10-18T16:13:45.913Z,15.09
2022-10-18T16:16:16.728Z,14.94
2022-10-18T16:18:43.054Z,14.92
2022-10-18T16:21:24.987Z,14.81
2022-10-18T16:23:51.555Z,14.74
2022-10-18T16:26:19.579Z,14.64
2022-10-18T16:28:46.650Z,14.59
2022-10-18T16:31:17.431Z,14.40
2022-10-18T16:33:44.616Z,14.37
2022-10-18T16:36:19.137Z,14.08
2022-10-18T16:38:46.199Z,13.84
2022-10-18T16:41:12.635Z,13.65
2022-10-18T16:43:39.551Z,13.44
2022-10-18T16:46:07.263Z,13.27
2022-10-18T16:48:34.067Z,13.50
2022-10-18T16:51:01.240Z,13.36
2022-10-18T16:53:27.745Z,13.04
2022-10-18T16:55:59.709Z,13.04
2022-10-18T16:58:28.023Z,12.95
2022-10-18T17:00:54.922Z,12.71
2022-10-18T17:03:21.526Z,12.87
2022-10-18T17:05:47.878Z,12.93
2022-10-18T17:08:23.238Z,12.80
2022-10-18T17:10:51.435Z,12.80
2022-10-18T17:13:17.739Z,12.71
2022-10-18T17:15:44.522Z,12.46
2022-10-18T17:18:16.780Z,12.37
2022-10-18T17:20:43.460Z,12.31
2022-10-18T17:23:09.994Z,12.21
2022-10-18T17:25:46.230Z,12.10
2022-10-18T17:28:23.983Z,12.01
2022-10-18T17:30:50.301Z,11.94
2022-10-18T17:33:16.595Z,12.08
2022-10-18T17:35:44.023Z,12.46
2022-10-18T17:38:10.935Z,12.44
2022-10-18T17:40:41.034Z,12.38
2022-10-18T17:43:07.695Z,12.36
2022-10-18T17:45:34.045Z,12.43
2022-10-18T17:48:00.376Z,12.42
2022-10-18T17:50:29.501Z,12.31
2022-10-18T17:52:55.876Z,12.37
2022-10-18T17:55:22.188Z,12.19
2022-10-18T17:57:48.487Z,11.87
2022-10-18T18:00:14.873Z,11.63
2022-10-18T18:02:42.080Z,11.42
2022-10-18T18:05:09.052Z,11.40
2022-10-18T18:07:35.593Z,11.41
2022-10-18T18:10:02.780Z,11.64
2022-10-18T18:12:29.077Z,11.93
2022-10-18T18:14:55.593Z,12.04
2022-10-18T18:17:33.634Z,12.00
2022-10-18T18:20:00.960Z,11.75
2022-10-18T18:22:27.266Z,11.50
2022-10-18T18:24:53.562Z,11.32
2022-10-18T18:27:19.891Z,11.20
2022-10-18T18:29:46.205Z,11.09
2022-10-18T18:32:12.531Z,10.99
2022-10-18T18:34:38.845Z,10.90
2022-10-18T18:37:05.162Z,10.76
2022-10-18T18:39:31.464Z,10.58
2022-10-18T18:41:57.797Z,10.43
2022-10-18T18:44:24.115Z,10.35
2022-10-18T18:46:50.433Z,10.20
2022-10-18T18:49:16.803Z,10.02
2022-10-18T18:51:43.194Z,9.85
2022-10-18T18:54:11.539Z,9.64
2022-10-18T18:56:38.014Z,9.64
2022-10-18T18:59:05.152Z,9.67
2022-10-18T19:01:34.632Z,9.55
2022-10-18T19:04:01.457Z,9.60
2022-10-18T19:06:30.931Z,9.51
2022-10-18T19:08:58.547Z,9.39
2022-10-18T19:11:24.860Z,9.48
2022-10-18T19:13:51.256Z,9.38
2022-10-18T19:16:21.812Z,9.31
2022-10-18T19:19:00.163Z,9.31
2022-10-18T19:21:30.152Z,9.30
2022-10-18T19:23:57.491Z,9.28
2022-10-18T19:26:31.115Z,9.30
2022-10-18T19:29:09.659Z,9.14
2022-10-18T19:31:36.387Z,9.03
2022-10-18T19:34:07.879Z,9.02
2022-10-18T19:36:35.155Z,9.09
2022-10-18T19:39:02.304Z,9.13
2022-10-18T19:41:36.872Z,9.12
2022-10-18T19:44:03.389Z,8.99
2022-10-18T19:46:29.796Z,9.03
2022-10-18T19:48:56.130Z,9.02
2022-10-18T19:51:26.844Z,9.00
2022-10-18T19:53:55.112Z,9.00
2022-10-18T19:56:23.099Z,8.96
2022-10-18T19:58:49.900Z,8.89
2022-10-18T20:01:17.472Z,8.90
2022-10-18T20:03:44.236Z,8.84
2022-10-18T20:06:10.937Z,8.84
2022-10-18T20:08:38.052Z,8.86
2022-10-18T20:11:07.765Z,8.92
2022-10-18T20:13:35.034Z,8.90
2022-10-18T20:16:04.892Z,8.92
2022-10-18T20:18:31.458Z,8.84
2022-10-18T20:20:57.773Z,8.86
2022-10-18T20:23:24.139Z,8.76
2022-10-18T20:26:01.382Z,8.72
2022-10-18T20:28:28.034Z,8.56
2022-10-18T20:31:02.736Z,8.53
2022-10-18T20:33:29.146Z,8.43
2022-10-18T20:35:55.640Z,8.33
2022-10-18T20:38:22.262Z,8.31
2022-10-18T20:40:48.572Z,8.18
2022-10-18T20:43:14.935Z,8.08
2022-10-18T20:45:41.235Z,7.95
2022-10-18T20:48:07.562Z,7.93
2022-10-18T20:50:33.887Z,7.88
2022-10-18T20:53:00.239Z,7.89
2022-10-18T20:55:28.801Z,7.84
2022-10-18T20:57:55.135Z,7.75
2022-10-18T21:00:21.440Z,7.79
2022-10-18T21:02:47.756Z,7.81
2022-10-18T21:05:14.126Z,7.73
2022-10-18T21:07:40.493Z,7.58
2022-10-18T21:10:07.161Z,7.54
2022-10-18T21:12:35.059Z,7.48
2022-10-18T21:15:01.814Z,7.40
2022-10-18T21:17:28.116Z,7.28
2022-10-18T21:19:54.431Z,7.21
2022-10-18T21:22:20.767Z,7.17
2022-10-18T21:24:47.097Z,7.18
2022-10-18T21:27:13.400Z,7.18
2022-10-18T21:29:39.720Z,7.25
2022-10-18T21:32:06.071Z,7.27
2022-10-18T21:34:32.557Z,7.47
2022-10-18T21:36:58.873Z,7.53
2022-10-18T21:39:25.372Z,7.47
2022-10-18T21:41:51.860Z,7.50
2022-10-18T21:44:18.474Z,7.62
2022-10-18T21:46:45.308Z,7.68
2022-10-18T21:49:12.387Z,7.65
2022-10-18T21:51:39.353Z,7.59
2022-10-18T21:54:08.356Z,7.63
2022-10-18T21:56:35.774Z,7.65
2022-10-18T21:59:03.137Z,7.53
2022-10-18T22:01:34.534Z,7.58
2022-10-18T22:04:03.346Z,7.56
2022-10-18T22:06:31.779Z,7.41
2022-10-18T22:09:01.282Z,7.36
2022-10-18T22:11:31.250Z,7.20
2022-10-18T22:13:58.039Z,7.12
2022-10-18T22:16:25.446Z,7.04
2022-10-18T22:18:56.270Z,6.93
2022-10-18T22:21:22.626Z,7.05
2022-10-18T22:23:51.320Z,7.02
2022-10-18T22:26:24.001Z,6.99
2022-10-18T22:28:58.649Z,7.01
2022-10-18T22:31:28.187Z,6.94
2022-10-18T22:33:59.607Z,7.01
2022-10-18T22:36:27.457Z,7.08
2022-10-18T22:38:54.167Z,7.10
2022-10-18T22:41:20.576Z,7.04
2022-10-18T22:43:47.537Z,7.05
2022-10-18T22:46:14.998Z,7.01
2022-10-18T22:48:41.839Z,6.93
2022-10-18T22:51:08.570Z,6.84
2022-10-18T22:53:35.772Z,6.85
2022-10-18T22:56:02.546Z,6.81
2022-10-18T22:58:29.206Z,6.83
2022-10-18T23:01:07.496Z,6.82
2022-10-18T23:03:35.072Z,6.90
2022-10-18T23:06:02.238Z,6.99
2022-10-18T23:08:29.776Z,7.07
2022-10-18T23:10:59.072Z,7.09
2022-10-18T23:13:26.860Z,7.15
2022-10-18T23:15:53.493Z,7.14
2022-10-18T23:18:19.877Z,7.07
2022-10-18T23:20:46.172Z,6.95
2022-10-18T23:23:13.109Z,6.96
2022-10-18T23:25:39.491Z,6.92
2022-10-18T23:28:06.457Z,6.75
2022-10-18T23:30:32.934Z,6.63
2022-10-18T23:32:59.257Z,6.54
2022-10-18T23:35:25.682Z,6.55
2022-10-18T23:37:52.168Z,6.49
2022-10-18T23:40:18.485Z,6.51
2022-10-18T23:42:44.795Z,6.56
2022-10-18T23:45:11.187Z,6.48
2022-10-18T23:47:37.539Z,6.44
2022-10-18T23:50:04.437Z,6.40
2022-10-18T23:52:30.761Z,6.34
2022-10-18T23:54:57.088Z,6.30
2022-10-18T23:57:23.394Z,6.26
2022-10-18T23:59:49.731Z,6.33
